createdAt,value
2022-10-11T00:00:08.748Z,4.20
2022-10-11T00:02:35.482Z,4.20
2022-10-11T00:05:02.372Z,4.10
2022-10-11T00:07:29.096Z,4.23
2022-10-11T00:09:57.310Z,4.20
2022-10-11T00:12:24.016Z,4.60
2022-10-11T00:14:50.914Z,4.33
2022-10-11T00:17:17.740Z,4.13
2022-10-11T00:19:44.437Z,3.80
2022-10-11T00:22:12.114Z,4.60
2022-10-11T00:24:38.823Z,4.83
2022-10-11T00:27:05.529Z,5.17
2022-10-11T00:29:32.378Z,4.83
2022-10-11T00:31:59.205Z,4.00
2022-10-11T00:34:26.017Z,4.77
2022-10-11T00:36:52.740Z,4.47
2022-10-11T00:39:19.540Z,4.53
2022-10-11T00:41:47.872Z,3.67
2022-10-11T00:44:21.440Z,4.33
2022-10-11T00:47:01.903Z,4.50
2022-10-11T00:49:52.997Z,4.77
2022-10-11T00:52:32.698Z,3.67
2022-10-11T00:55:16.628Z,4.80
2022-10-11T00:57:48.505Z,4.20
2022-10-11T01:00:16.274Z,4.13
2022-10-11T01:02:43.462Z,5.20
2022-10-11T01:05:29.495Z,4.17
2022-10-11T01:08:01.804Z,4.37
2022-10-11T01:10:29.396Z,4.10
2022-10-11T01:13:09.092Z,4.00
2022-10-11T01:15:39.437Z,3.93
2022-10-11T01:18:15.218Z,3.97
2022-10-11T01:20:56.658Z,4.60
2022-10-11T01:23:42.048Z,4.90
2022-10-11T01:26:37.614Z,4.33
2022-10-11T01:29:10.486Z,4.13
2022-10-11T01:31:49.284Z,5.80
2022-10-11T01:34:35.072Z,3.97
2022-10-11T01:37:11.089Z,4.17
2022-10-11T01:39:52.365Z,4.07
2022-10-11T01:42:20.662Z,3.63
2022-10-11T01:44:50.664Z,4.30
2022-10-11T01:47:22.642Z,4.03
2022-10-11T01:49:57.880Z,3.00
2022-10-11T01:52:30.304Z,5.10
2022-10-11T01:55:18.650Z,4.90
2022-10-11T01:58:07.868Z,4.00
2022-10-11T02:00:49.821Z,4.70
2022-10-11T02:03:35.183Z,5.20
2022-10-11T02:06:23.265Z,5.13
2022-10-11T02:09:22.000Z,4.30
2022-10-11T02:11:48.760Z,4.60
2022-10-11T02:14:24.373Z,4.33
2022-10-11T02:17:07.457Z,4.53
2022-10-11T02:19:41.827Z,3.53
2022-10-11T02:22:15.251Z,3.87
2022-10-11T02:24:46.260Z,3.60
2022-10-11T02:27:15.084Z,3.80
2022-10-11T02:29:45.613Z,3.30
2022-10-11T02:32:13.736Z,4.30
2022-10-11T02:34:49.627Z,2.97
2022-10-11T02:37:22.126Z,4.60
2022-10-11T02:39:55.412Z,3.67
2022-10-11T02:42:32.791Z,4.50
2022-10-11T02:45:29.622Z,4.20
2022-10-11T02:47:57.904Z,4.40
2022-10-11T02:50:24.609Z,3.90
2022-10-11T02:52:51.400Z,4.33
2022-10-11T02:55:18.227Z,4.70
2022-10-11T02:57:45.079Z,4.73
2022-10-11T03:00:12.640Z,5.17
2022-10-11T03:02:39.432Z,3.87
2022-10-11T03:05:06.443Z,3.80
2022-10-11T03:07:33.450Z,4.20
2022-10-11T03:10:00.207Z,4.03
2022-10-11T03:12:26.917Z,3.93
2022-10-11T03:14:53.664Z,3.97
2022-10-11T03:17:35.765Z,4.20
2022-10-11T03:20:04.702Z,3.73
2022-10-11T03:22:31.449Z,4.03
2022-10-11T03:25:02.696Z,4.23
2022-10-11T03:27:30.875Z,3.53
2022-10-11T03:29:57.828Z,4.70
2022-10-11T03:32:25.133Z,3.87
2022-10-11T03:34:51.984Z,4.90
2022-10-11T03:37:18.946Z,4.27
2022-10-11T03:39:46.003Z,4.20
2022-10-11T03:42:13.930Z,3.50
2022-10-11T03:44:42.151Z,3.97
2022-10-11T03:47:09.355Z,3.97
2022-10-11T03:49:39.981Z,3.70
2022-10-11T03:52:09.448Z,4.47
2022-10-11T03:54:36.313Z,3.53
2022-10-11T03:57:03.201Z,4.23
2022-10-11T03:59:30.042Z,4.67
2022-10-11T04:01:57.095Z,3.90
2022-10-11T04:04:23.932Z,4.47
2022-10-11T04:06:50.672Z,3.87
2022-10-11T04:09:17.401Z,4.00
2022-10-11T04:11:44.122Z,4.30
2022-10-11T04:14:10.891Z,3.83
2022-10-11T04:16:38.783Z,3.90
2022-10-11T04:19:05.796Z,4.93
2022-10-11T04:21:32.596Z,3.50
2022-10-11T04:23:59.348Z,3.40
2022-10-11T04:26:26.195Z,3.63
2022-10-11T04:28:53.089Z,3.30
2022-10-11T04:31:20.002Z,5.00
2022-10-11T04:33:46.749Z,3.60
2022-10-11T04:36:13.512Z,3.80
2022-10-11T04:38:40.235Z,3.90
2022-10-11T04:41:12.590Z,4.60
2022-10-11T04:43:39.695Z,4.10
2022-10-11T04:46:07.102Z,4.33
2022-10-11T04:48:34.158Z,3.80
2022-10-11T04:51:00.905Z,4.50
2022-10-11T04:53:27.773Z,4.53
2022-10-11T04:55:58.879Z,3.60
2022-10-11T04:58:25.591Z,4.17
2022-10-11T05:00:53.612Z,3.80
2022-10-11T05:03:20.387Z,3.67
2022-10-11T05:05:47.176Z,4.20
2022-10-11T05:08:14.130Z,3.60
2022-10-11T05:10:41.100Z,3.90
2022-10-11T05:13:07.893Z,4.07
2022-10-11T05:15:34.748Z,4.00
2022-10-11T05:18:01.575Z,4.07
2022-10-11T05:20:28.312Z,4.07
2022-10-11T05:22:55.094Z,4.80
2022-10-11T05:25:21.817Z,4.10
2022-10-11T05:27:48.757Z,3.93
2022-10-11T05:30:16.610Z,4.03
2022-10-11T05:32:43.297Z,3.77
2022-10-11T05:35:10.406Z,4.27
2022-10-11T05:37:37.239Z,4.70
2022-10-11T05:40:04.284Z,4.50
2022-10-11T05:42:30.980Z,4.37
2022-10-11T05:44:57.766Z,4.40
2022-10-11T05:47:24.454Z,3.57
2022-10-11T05:49:51.675Z,3.83
2022-10-11T05:52:21.836Z,4.43
2022-10-11T05:54:49.593Z,3.80
2022-10-11T05:57:17.112Z,3.87
2022-10-11T05:59:43.888Z,4.30
2022-10-11T06:02:12.833Z,5.10
2022-10-11T06:04:40.834Z,3.97
2022-10-11T06:07:07.803Z,3.87
2022-10-11T06:09:37.563Z,3.40
2022-10-11T06:12:04.396Z,4.03
2022-10-11T06:14:31.459Z,3.70
2022-10-11T06:16:58.284Z,4.40
2022-10-11T06:19:25.075Z,4.50
2022-10-11T06:21:52.326Z,4.00
2022-10-11T06:24:19.113Z,4.73
2022-10-11T06:26:45.837Z,3.80
2022-10-11T06:29:12.551Z,3.40
2022-10-11T06:31:39.278Z,4.03
2022-10-11T06:34:06.001Z,4.90
2022-10-11T06:36:32.805Z,4.77
2022-10-11T06:39:01.433Z,4.63
2022-10-11T06:41:30.276Z,3.13
2022-10-11T06:43:57.725Z,4.20
2022-10-11T06:46:27.298Z,4.23
2022-10-11T06:48:56.300Z,4.20
2022-10-11T06:51:23.847Z,4.13
2022-10-11T06:53:56.404Z,4.10
2022-10-11T06:56:23.947Z,4.37
2022-10-11T06:58:53.805Z,3.80
2022-10-11T07:01:23.471Z,4.07
2022-10-11T07:03:51.987Z,4.67
2022-10-11T07:06:22.176Z,4.40
2022-10-11T07:08:49.907Z,7.13
2022-10-11T07:11:19.853Z,5.67
2022-10-11T07:13:54.675Z,5.70
2022-10-11T07:16:22.881Z,7.00
2022-10-11T07:18:59.621Z,5.17
2022-10-11T07:21:28.160Z,5.63
2022-10-11T07:23:54.889Z,5.50
2022-10-11T07:26:21.944Z,5.27
2022-10-11T07:28:48.918Z,5.43
2022-10-11T07:31:21.809Z,5.10
2022-10-11T07:33:48.636Z,4.50
2022-10-11T07:36:15.534Z,4.93
2022-10-11T07:38:44.028Z,5.77
2022-10-11T07:41:10.923Z,5.43
2022-10-11T07:43:38.647Z,6.53
2022-10-11T07:46:07.319Z,5.10
2022-10-11T07:48:35.713Z,5.97
2022-10-11T07:51:14.539Z,5.57
2022-10-11T07:53:49.105Z,5.17
2022-10-11T07:56:19.042Z,5.03
2022-10-11T07:59:04.890Z,5.53
2022-10-11T08:01:32.768Z,5.40
2022-10-11T08:03:59.948Z,5.30
2022-10-11T08:06:31.600Z,5.63
2022-10-11T08:09:00.526Z,4.77
2022-10-11T08:11:36.847Z,4.47
2022-10-11T08:14:08.623Z,4.47
2022-10-11T08:16:36.192Z,5.57
2022-10-11T08:19:03.522Z,4.60
2022-10-11T08:21:30.636Z,5.93
2022-10-11T08:23:57.525Z,4.97
2022-10-11T08:26:24.931Z,4.90
2022-10-11T08:28:51.765Z,4.83
2022-10-11T08:31:18.935Z,5.13
2022-10-11T08:33:45.941Z,4.63
2022-10-11T08:36:13.659Z,4.33
2022-10-11T08:38:41.301Z,4.87
2022-10-11T08:41:21.076Z,5.23
2022-10-11T08:44:06.458Z,3.97
2022-10-11T08:46:38.853Z,5.80
2022-10-11T08:49:07.536Z,4.23
2022-10-11T08:51:42.136Z,4.33
2022-10-11T08:54:17.637Z,4.77
2022-10-11T08:56:46.000Z,4.03
2022-10-11T08:59:12.675Z,5.63
2022-10-11T09:01:46.363Z,4.33
2022-10-11T09:04:16.046Z,3.77
2022-10-11T09:07:27.327Z,3.60
2022-10-11T09:10:09.479Z,3.63
2022-10-11T09:12:48.421Z,4.40
2022-10-11T09:15:56.681Z,4.63
2022-10-11T09:18:30.804Z,3.43
2022-10-11T09:21:32.979Z,3.60
2022-10-11T09:24:18.135Z,5.10
2022-10-11T09:26:53.599Z,4.43
2022-10-11T09:30:01.220Z,4.93
2022-10-11T09:32:37.620Z,4.50
2022-10-11T09:35:21.943Z,4.37
2022-10-11T09:38:00.876Z,4.30
2022-10-11T09:40:43.857Z,4.60
2022-10-11T09:43:10.782Z,3.93
2022-10-11T09:45:38.771Z,4.83
2022-10-11T09:48:07.391Z,3.80
2022-10-11T09:50:34.649Z,4.00
2022-10-11T09:53:08.207Z,4.57
2022-10-11T09:55:37.912Z,4.23
2022-10-11T09:58:05.918Z,4.03
2022-10-11T10:00:34.009Z,4.93
2022-10-11T10:03:04.115Z,4.30
2022-10-11T10:05:36.786Z,4.70
2022-10-11T10:08:24.781Z,5.50
2022-10-11T10:11:01.970Z,4.27
2022-10-11T10:13:35.188Z,3.97
2022-10-11T10:16:04.285Z,4.13
2022-10-11T10:18:37.590Z,4.70
2022-10-11T10:21:10.608Z,3.63
2022-10-11T10:23:38.109Z,4.10
2022-10-11T10:26:21.464Z,3.73
2022-10-11T10:29:16.634Z,3.70
2022-10-11T10:32:12.779Z,3.90
2022-10-11T10:34:53.335Z,4.10
2022-10-11T10:37:27.729Z,3.30
2022-10-11T10:40:13.983Z,3.87
2022-10-11T10:42:40.799Z,2.90
2022-10-11T10:45:18.649Z,3.47
2022-10-11T10:48:16.924Z,3.33
2022-10-11T10:51:05.000Z,3.53
2022-10-11T10:53:49.552Z,3.90
2022-10-11T10:56:24.029Z,3.90
2022-10-11T10:59:14.109Z,3.63
2022-10-11T11:02:06.724Z,3.70
2022-10-11T11:04:50.833Z,3.93
2022-10-11T11:07:29.341Z,3.57
2022-10-11T11:10:05.668Z,3.20
2022-10-11T11:12:47.315Z,3.43
2022-10-11T11:15:40.482Z,3.20
2022-10-11T11:18:25.868Z,3.63
2022-10-11T11:21:08.091Z,3.13
2022-10-11T11:23:37.654Z,2.60
2022-10-11T11:26:37.118Z,3.20
2022-10-11T11:29:40.564Z,2.70
2022-10-11T11:32:20.943Z,2.97
2022-10-11T11:34:54.568Z,2.70
2022-10-11T11:37:26.927Z,2.30
2022-10-11T11:40:05.220Z,2.93
2022-10-11T11:42:40.497Z,2.90
2022-10-11T11:45:34.101Z,2.70
2022-10-11T11:48:06.705Z,2.83
2022-10-11T11:50:43.816Z,3.20
2022-10-11T11:53:56.526Z,2.87
2022-10-11T11:56:48.981Z,3.00
2022-10-11T11:59:27.251Z,3.00
2022-10-11T12:02:12.288Z,2.40
2022-10-11T12:04:43.530Z,2.67
2022-10-11T12:07:17.087Z,2.97
2022-10-11T12:09:50.770Z,2.50
2022-10-11T12:12:31.497Z,2.40
2022-10-11T12:15:21.589Z,2.70
2022-10-11T12:17:57.467Z,2.97
2022-10-11T12:20:31.615Z,2.67
2022-10-11T12:23:05.384Z,3.30
2022-10-11T12:25:40.212Z,2.70
2022-10-11T12:28:42.309Z,2.50
2022-10-11T12:31:24.447Z,3.10
2022-10-11T12:34:08.958Z,3.10
2022-10-11T12:36:47.901Z,2.63
2022-10-11T12:39:20.843Z,3.37
2022-10-11T12:41:47.765Z,2.60
2022-10-11T12:44:30.818Z,3.40
2022-10-11T12:46:58.147Z,2.70
2022-10-11T12:49:35.602Z,3.17
2022-10-11T12:52:17.904Z,2.43
2022-10-11T12:55:29.986Z,2.57
2022-10-11T12:58:29.076Z,2.47
2022-10-11T13:00:59.058Z,2.83
2022-10-11T13:03:34.724Z,2.57
2022-10-11T13:06:28.968Z,2.90
2022-10-11T13:09:27.732Z,2.87
2022-10-11T13:12:05.467Z,2.00
2022-10-11T13:14:42.440Z,2.37
2022-10-11T13:17:23.523Z,2.70
2022-10-11T13:20:02.099Z,2.93
2022-10-11T13:22:28.919Z,2.53
2022-10-11T13:25:00.419Z,2.57
2022-10-11T13:27:27.701Z,2.20
2022-10-11T13:29:59.473Z,2.90
2022-10-11T13:32:29.789Z,3.00
2022-10-11T13:35:06.615Z,2.93
2022-10-11T13:37:44.131Z,2.73
2022-10-11T13:40:22.213Z,3.13
2022-10-11T13:42:51.640Z,2.53
2022-10-11T13:45:24.505Z,3.17
2022-10-11T13:47:52.847Z,3.37
2022-10-11T13:50:34.482Z,3.53
2022-10-11T13:53:21.922Z,2.27
2022-10-11T13:55:57.905Z,2.63
2022-10-11T13:58:46.800Z,2.60
2022-10-11T14:01:28.977Z,3.00
2022-10-11T14:04:00.078Z,2.60
2022-10-11T14:07:02.315Z,3.03
2022-10-11T14:09:32.204Z,2.57
2022-10-11T14:12:39.623Z,3.03
2022-10-11T14:15:30.933Z,2.30
2022-10-11T14:17:58.832Z,3.57
2022-10-11T14:20:38.929Z,2.80
2022-10-11T14:23:06.762Z,2.70
2022-10-11T14:25:34.175Z,2.83
2022-10-11T14:28:01.380Z,2.83
2022-10-11T14:30:31.410Z,3.23
2022-10-11T14:33:01.939Z,3.30
2022-10-11T14:35:32.541Z,2.70
2022-10-11T14:37:59.375Z,3.67
2022-10-11T14:40:28.681Z,2.80
2022-10-11T14:42:55.723Z,3.20
2022-10-11T14:45:22.902Z,2.97
2022-10-11T14:47:50.641Z,3.27
2022-10-11T14:50:32.458Z,2.60
2022-10-11T14:52:59.881Z,2.83
2022-10-11T14:55:26.863Z,2.80
2022-10-11T14:57:53.859Z,2.47
2022-10-11T15:00:24.061Z,2.90
2022-10-11T15:02:53.224Z,2.70
2022-10-11T15:05:22.200Z,3.20
2022-10-11T15:07:49.689Z,2.90
2022-10-11T15:10:23.407Z,2.27
2022-10-11T15:12:51.675Z,2.50
2022-10-11T15:15:22.347Z,2.73
2022-10-11T15:17:54.431Z,2.83
2022-10-11T15:20:31.504Z,2.10
2022-10-11T15:22:59.457Z,2.60
2022-10-11T15:25:27.919Z,3.17
2022-10-11T15:27:55.136Z,3.27
2022-10-11T15:30:24.740Z,3.13
2022-10-11T15:32:52.111Z,2.43
2022-10-11T15:35:19.852Z,2.37
2022-10-11T15:37:47.214Z,2.77
2022-10-11T15:40:33.347Z,2.83
2022-10-11T15:43:00.503Z,3.00
2022-10-11T15:45:28.674Z,2.80
2022-10-11T15:47:55.754Z,2.67
2022-10-11T15:50:34.644Z,3.13
2022-10-11T15:53:15.243Z,3.13
2022-10-11T15:55:44.481Z,2.77
2022-10-11T15:58:17.094Z,3.03
2022-10-11T16:00:45.792Z,2.23
2022-10-11T16:03:14.097Z,3.30
2022-10-11T16:05:41.416Z,3.10
2022-10-11T16:08:08.983Z,3.30
2022-10-11T16:10:36.398Z,2.53
2022-10-11T16:13:03.580Z,2.97
2022-10-11T16:15:30.715Z,3.00
2022-10-11T16:17:57.574Z,2.80
2022-10-11T16:20:25.750Z,2.40
2022-10-11T16:22:54.293Z,3.57
2022-10-11T16:25:22.229Z,2.67
2022-10-11T16:27:50.154Z,2.77
2022-10-11T16:30:18.401Z,2.67
2022-10-11T16:32:45.574Z,2.83
2022-10-11T16:35:13.918Z,2.83
2022-10-11T16:37:40.737Z,2.60
2022-10-11T16:40:08.970Z,2.60
2022-10-11T16:42:37.619Z,2.83
2022-10-11T16:45:05.278Z,2.87
2022-10-11T16:47:32.075Z,2.90
2022-10-11T16:49:59.393Z,2.57
2022-10-11T16:52:26.562Z,2.47
2022-10-11T16:54:53.492Z,2.83
2022-10-11T16:57:20.422Z,2.80
2022-10-11T16:59:47.592Z,2.67
2022-10-11T17:02:19.507Z,2.70
2022-10-11T17:04:47.131Z,2.87
2022-10-11T17:07:14.091Z,2.60
2022-10-11T17:09:44.924Z,4.37
2022-10-11T17:12:13.677Z,3.13
2022-10-11T17:14:41.434Z,3.13
2022-10-11T17:17:09.907Z,4.10
2022-10-11T17:19:45.079Z,4.40
2022-10-11T17:22:15.360Z,3.57
2022-10-11T17:24:42.465Z,3.17
2022-10-11T17:27:09.325Z,3.07
2022-10-11T17:29:36.978Z,3.10
2022-10-11T17:32:04.250Z,3.20
2022-10-11T17:34:31.220Z,3.10
2022-10-11T17:36:57.979Z,3.13
2022-10-11T17:39:25.807Z,3.63
2022-10-11T17:41:53.181Z,3.33
2022-10-11T17:44:20.810Z,3.97
2022-10-11T17:46:48.056Z,3.80
2022-10-11T17:49:15.112Z,3.77
2022-10-11T17:51:42.623Z,3.37
2022-10-11T17:54:12.864Z,3.77
2022-10-11T17:56:41.195Z,3.10
2022-10-11T17:59:14.369Z,3.67
2022-10-11T18:01:41.175Z,3.90
2022-10-11T18:04:13.327Z,2.87
2022-10-11T18:06:40.201Z,3.50
2022-10-11T18:09:07.402Z,3.67
2022-10-11T18:11:34.151Z,3.60
2022-10-11T18:14:01.410Z,3.37
2022-10-11T18:16:30.176Z,3.67
2022-10-11T18:18:57.886Z,3.73
2022-10-11T18:21:28.772Z,4.17
2022-10-11T18:24:05.302Z,4.80
2022-10-11T18:26:33.084Z,4.40
2022-10-11T18:28:59.978Z,4.87
2022-10-11T18:31:29.960Z,4.27
2022-10-11T18:33:56.905Z,4.17
2022-10-11T18:36:26.797Z,4.23
2022-10-11T18:38:56.514Z,7.03
2022-10-11T18:41:27.336Z,4.43
2022-10-11T18:43:55.782Z,5.20
2022-10-11T18:46:23.814Z,5.70
2022-10-11T18:48:53.623Z,8.83
2022-10-11T18:51:23.372Z,7.30
2022-10-11T18:53:50.943Z,6.77
2022-10-11T18:56:27.895Z,6.20
2022-10-11T18:58:56.217Z,5.67
2022-10-11T19:01:24.574Z,5.37
2022-10-11T19:03:53.872Z,5.33
2022-10-11T19:06:23.066Z,5.13
2022-10-11T19:08:52.947Z,5.27
2022-10-11T19:11:25.327Z,4.47
2022-10-11T19:14:07.095Z,5.37
2022-10-11T19:16:37.581Z,5.00
2022-10-11T19:19:05.118Z,3.73
2022-10-11T19:21:32.112Z,5.47
2022-10-11T19:23:59.371Z,4.80
2022-10-11T19:26:33.431Z,4.80
2022-10-11T19:29:02.166Z,5.80
2022-10-11T19:31:30.436Z,5.53
2022-10-11T19:33:58.055Z,5.57
2022-10-11T19:36:25.340Z,6.20
2022-10-11T19:38:56.810Z,5.60
2022-10-11T19:41:25.513Z,5.87
2022-10-11T19:43:52.591Z,5.40
2022-10-11T19:46:38.356Z,5.93
2022-10-11T19:49:08.979Z,6.67
2022-10-11T19:51:37.302Z,6.17
2022-10-11T19:54:07.343Z,6.87
2022-10-11T19:56:34.721Z,6.53
2022-10-11T19:59:02.325Z,6.53
2022-10-11T20:01:31.119Z,6.67
2022-10-11T20:04:02.277Z,6.77
2022-10-11T20:06:34.563Z,6.93
2022-10-11T20:09:27.512Z,6.80
2022-10-11T20:11:50.976Z,6.40
2022-10-11T20:14:19.443Z,6.90
2022-10-11T20:16:46.304Z,6.40
2022-10-11T20:19:13.038Z,6.73
2022-10-11T20:21:41.553Z,6.50
2022-10-11T20:24:08.852Z,7.00
2022-10-11T20:26:35.825Z,6.77
2022-10-11T20:29:02.544Z,6.63
2022-10-11T20:31:32.999Z,5.93
2022-10-11T20:34:02.232Z,5.87
2022-10-11T20:36:30.193Z,6.27
2022-10-11T20:38:58.671Z,6.67
2022-10-11T20:41:28.387Z,7.30
2022-10-11T20:43:56.695Z,7.97
2022-10-11T20:46:26.324Z,8.03
2022-10-11T20:49:01.170Z,6.97
2022-10-11T20:51:30.358Z,6.93
2022-10-11T20:53:57.202Z,6.60
2022-10-11T20:56:24.528Z,6.87
2022-10-11T20:58:53.893Z,6.77
2022-10-11T21:01:26.335Z,6.97
2022-10-11T21:03:54.171Z,7.87
2022-10-11T21:06:21.161Z,7.23
2022-10-11T21:08:47.855Z,6.90
2022-10-11T21:11:14.764Z,7.53
2022-10-11T21:13:41.627Z,7.10
2022-10-11T21:16:14.852Z,7.87
2022-10-11T21:18:42.148Z,7.50
2022-10-11T21:21:11.718Z,7.87
2022-10-11T21:23:39.281Z,7.40
2022-10-11T21:26:08.967Z,7.60
2022-10-11T21:28:36.283Z,7.13
2022-10-11T21:31:08.215Z,7.17
2022-10-11T21:33:35.340Z,6.67
2022-10-11T21:36:07.245Z,7.10
2022-10-11T21:38:34.562Z,7.47
2022-10-11T21:41:06.073Z,6.03
2022-10-11T21:43:34.308Z,5.60
2022-10-11T21:46:18.323Z,5.93
2022-10-11T21:48:45.277Z,5.27
2022-10-11T21:51:26.568Z,5.60
2022-10-11T21:53:55.078Z,7.00
2022-10-11T21:56:22.030Z,5.70
2022-10-11T21:58:50.057Z,6.10
2022-10-11T22:01:18.285Z,6.13
2022-10-11T22:03:45.459Z,5.97
2022-10-11T22:06:12.622Z,5.97
2022-10-11T22:08:40.311Z,6.07
2022-10-11T22:11:07.851Z,5.70
2022-10-11T22:13:34.900Z,6.30
2022-10-11T22:16:09.933Z,6.00
2022-10-11T22:18:36.952Z,6.27
2022-10-11T22:21:15.702Z,6.10
2022-10-11T22:23:44.646Z,5.23
2022-10-11T22:26:17.420Z,5.50
2022-10-11T22:28:46.504Z,5.80
2022-10-11T22:31:14.895Z,5.27
2022-10-11T22:33:42.117Z,5.33
2022-10-11T22:36:10.335Z,5.70
2022-10-11T22:38:39.176Z,5.03
2022-10-11T22:41:06.534Z,7.10
2022-10-11T22:43:33.428Z,6.03
2022-10-11T22:46:00.242Z,5.00
2022-10-11T22:48:27.002Z,5.40
2022-10-11T22:50:54.257Z,4.67
2022-10-11T22:53:21.215Z,5.23
2022-10-11T22:55:48.229Z,5.90
2022-10-11T22:58:15.156Z,4.63
2022-10-11T23:00:42.099Z,4.87
2022-10-11T23:03:11.917Z,4.67
2022-10-11T23:05:38.895Z,5.00
2022-10-11T23:08:06.535Z,5.57
2022-10-11T23:10:33.350Z,5.77
2022-10-11T23:13:01.303Z,5.50
2022-10-11T23:15:28.010Z,5.30
2022-10-11T23:17:54.803Z,4.63
2022-10-11T23:20:21.567Z,5.27
2022-10-11T23:22:48.386Z,4.40
2022-10-11T23:25:15.188Z,4.90
2022-10-11T23:27:41.923Z,4.80
2022-10-11T23:30:09.587Z,4.50
2022-10-11T23:32:36.698Z,5.83
2022-10-11T23:35:03.679Z,5.07
2022-10-11T23:37:30.383Z,4.40
2022-10-11T23:39:57.101Z,5.13
2022-10-11T23:42:23.817Z,4.67
2022-10-11T23:44:52.944Z,4.53
2022-10-11T23:47:27.640Z,4.80
2022-10-11T23:49:54.372Z,4.47
2022-10-11T23:52:21.301Z,4.30
2022-10-11T23:54:48.084Z,4.50
2022-10-11T23:57:14.945Z,4.43
2022-10-11T23:59:43.074Z,4.90
